Time;durP1;ratioP1;P1;durP2;ratioP2;P2;SDS_P1;SDS_P2;PMS_P1;PMS_P2;Temp;Humidity;BMP_temperature;BMP_pressure;BME280_temperature;BME280_humidity;BME280_pressure;Samples;Min_cycle;Max_cycle;Signal;HPM_P1;HPM_P2
2023/06/29 00:00:25;;;;;;;46.30;41.75;;;20.70;99.90;;;;;;5033003;28;20084;-57
2023/06/29 00:02:52;;;;;;;43.83;39.83;;;20.30;99.90;;;;;;5032545;28;20464;-57
2023/06/29 00:05:21;;;;;;;46.75;42.42;;;20.40;99.90;;;;;;5032648;28;20258;-56
2023/06/29 00:07:47;;;;;;;45.78;41.28;;;20.70;99.90;;;;;;5032466;28;20064;-57
2023/06/29 00:10:13;;;;;;;45.88;41.40;;;20.70;99.90;;;;;;5025425;28;20046;-57
2023/06/29 00:12:40;;;;;;;46.85;42.35;;;20.50;99.90;;;;;;5032252;28;20637;-57
2023/06/29 00:15:06;;;;;;;46.47;42.08;;;20.70;99.90;;;;;;5032528;28;20049;-57
2023/06/29 00:17:33;;;;;;;45.10;40.85;;;20.80;99.90;;;;;;5031924;28;20038;-57
2023/06/29 00:20:00;;;;;;;45.97;41.65;;;20.80;99.90;;;;;;5032167;28;20060;-57
2023/06/29 00:22:26;;;;;;;46.85;42.45;;;20.40;99.90;;;;;;5032136;28;20416;-56
2023/06/29 00:24:56;;;;;;;47.28;42.83;;;20.90;99.90;;;;;;5031747;28;20049;-57
2023/06/29 00:27:22;;;;;;;46.92;42.55;;;20.40;99.90;;;;;;5031898;28;20411;-57
2023/06/29 00:29:48;;;;;;;47.30;42.78;;;20.70;99.90;;;;;;5032132;28;20049;-56
2023/06/29 00:32:14;;;;;;;47.45;42.65;;;20.50;99.90;;;;;;5031979;28;20045;-56
2023/06/29 00:34:40;;;;;;;46.38;41.97;;;20.80;99.90;;;;;;5032118;28;20579;-57
2023/06/29 00:37:05;;;;;;;48.20;43.70;;;20.60;99.90;;;;;;5030364;28;20049;-57
2023/06/29 00:39:32;;;;;;;48.65;44.08;;;20.90;99.90;;;;;;5031825;28;20033;-56
2023/06/29 00:41:58;;;;;;;47.20;42.83;;;20.60;99.90;;;;;;5031925;28;20080;-57
2023/06/29 00:44:23;;;;;;;48.58;43.92;;;20.60;99.90;;;;;;5031790;28;20107;-57
2023/06/29 00:46:51;;;;;;;46.58;42.30;;;21.00;99.90;;;;;;5031517;28;20045;-57
2023/06/29 00:49:18;;;;;;;47.55;42.80;;;20.90;99.90;;;;;;5031745;28;20041;-57
2023/06/29 00:51:47;;;;;;;48.60;44.17;;;20.50;99.90;;;;;;5031201;28;20172;-57
2023/06/29 00:54:13;;;;;;;48.55;43.70;;;20.90;99.90;;;;;;5031637;28;20091;-56
2023/06/29 00:56:39;;;;;;;48.25;43.67;;;20.90;99.90;;;;;;5046627;28;20376;-56
2023/06/29 00:59:05;;;;;;;49.20;44.25;;;20.80;99.90;;;;;;5031813;28;20372;-57
2023/06/29 01:01:31;;;;;;;48.20;43.55;;;21.00;99.90;;;;;;5031349;28;20045;-56
2023/06/29 01:03:57;;;;;;;49.00;44.03;;;20.90;99.90;;;;;;5031571;28;20049;-57
2023/06/29 01:06:30;;;;;;;48.40;43.72;;;20.70;99.90;;;;;;5029774;28;20064;-57
2023/06/29 01:09:04;;;;;;;49.40;44.47;;;20.50;99.90;;;;;;5030657;28;20049;-57
2023/06/29 01:11:34;;;;;;;49.03;44.13;;;20.60;99.90;;;;;;5021136;28;20033;-56
2023/06/29 01:14:03;;;;;;;49.40;44.50;;;20.90;99.90;;;;;;5031321;28;20045;-56
2023/06/29 01:16:32;;;;;;;49.13;44.35;;;20.50;99.90;;;;;;5031182;28;20503;-57
2023/06/29 01:18:59;;;;;;;48.88;44.38;;;20.40;99.90;;;;;;5031279;28;20037;-57
2023/06/29 01:21:27;;;;;;;48.90;44.30;;;20.40;99.90;;;;;;5030896;28;20077;-57
2023/06/29 01:23:56;;;;;;;49.97;44.83;;;20.50;99.90;;;;;;5030310;28;20064;-57
2023/06/29 01:26:22;;;;;;;50.45;45.45;;;20.50;99.90;;;;;;5030892;28;20048;-56
2023/06/29 01:28:50;;;;;;;49.70;45.03;;;20.40;99.90;;;;;;5029527;28;20049;-56
2023/06/29 01:31:15;;;;;;;49.33;44.65;;;20.60;99.90;;;;;;5030916;28;20492;-57
2023/06/29 01:33:41;;;;;;;49.05;44.30;;;20.40;99.90;;;;;;5030889;28;20095;-56
2023/06/29 01:36:20;;;;;;;49.10;44.38;;;20.40;99.90;;;;;;5029234;28;20029;-58
2023/06/29 01:39:01;;;;;;;50.28;45.40;;;20.70;99.90;;;;;;5030890;28;20048;-57
2023/06/29 01:41:31;;;;;;;49.25;44.65;;;20.50;99.90;;;;;;5030589;28;20083;-57
2023/06/29 01:44:00;;;;;;;49.78;44.92;;;21.00;99.90;;;;;;5029072;28;20061;-57
2023/06/29 01:46:27;;;;;;;48.88;44.05;;;20.50;99.90;;;;;;5030444;28;20053;-56
2023/06/29 01:48:52;;;;;;;48.70;44.13;;;20.50;99.90;;;;;;5030580;28;20065;-56
2023/06/29 01:51:19;;;;;;;50.17;45.22;;;20.40;99.90;;;;;;5030397;28;20480;-56
2023/06/29 01:53:44;;;;;;;49.88;45.17;;;20.70;99.90;;;;;;5030563;28;20057;-57
2023/06/29 01:56:10;;;;;;;51.10;46.03;;;20.90;99.90;;;;;;5030170;28;20048;-56
2023/06/29 01:58:35;;;;;;;50.13;45.40;;;20.50;99.90;;;;;;5021316;28;20041;-57
2023/06/29 02:01:01;;;;;;;53.15;47.65;;;20.90;99.90;;;;;;5012102;28;20053;-57
2023/06/29 02:03:26;;;;;;;51.53;46.42;;;21.00;99.90;;;;;;5045507;28;20071;-57
2023/06/29 02:05:52;;;;;;;51.38;46.38;;;20.70;99.90;;;;;;5030415;28;20041;-57
2023/06/29 02:08:18;;;;;;;52.95;47.42;;;20.80;99.90;;;;;;5030231;28;20399;-58
2023/06/29 02:10:43;;;;;;;53.20;47.90;;;20.90;99.90;;;;;;5030096;28;20033;-57
2023/06/29 02:13:09;;;;;;;57.10;50.72;;;20.70;99.90;;;;;;5029875;28;20045;-57
2023/06/29 02:15:34;;;;;;;55.05;49.42;;;20.40;99.90;;;;;;5030132;28;20484;-57
2023/06/29 02:18:00;;;;;;;51.10;46.03;;;21.40;99.90;;;;;;5029624;28;20033;-57
2023/06/29 02:20:25;;;;;;;50.17;45.25;;;21.10;99.90;;;;;;5029890;28;20037;-57
2023/06/29 02:22:51;;;;;;;51.25;46.15;;;20.40;99.90;;;;;;5030029;28;20052;-57
2023/06/29 02:25:16;;;;;;;51.42;46.42;;;21.10;99.90;;;;;;5016227;28;20050;-57
2023/06/29 02:27:42;;;;;;;52.35;47.08;;;20.50;99.90;;;;;;5024091;28;20081;-57
2023/06/29 02:30:09;;;;;;;52.70;47.50;;;20.50;99.90;;;;;;5030307;28;20064;-56
2023/06/29 02:32:34;;;;;;;53.05;47.78;;;20.50;99.90;;;;;;5029860;28;20037;-57
2023/06/29 02:35:00;;;;;;;53.55;48.25;;;20.50;99.90;;;;;;5029906;28;20045;-57
2023/06/29 02:37:25;;;;;;;52.50;46.83;;;20.50;99.90;;;;;;5021983;28;20514;-57
2023/06/29 02:39:51;;;;;;;51.55;46.72;;;20.60;99.90;;;;;;5029818;28;20487;-57
2023/06/29 02:42:16;;;;;;;49.10;44.25;;;21.00;99.90;;;;;;5029513;28;20044;-58
2023/06/29 02:44:42;;;;;;;47.78;43.30;;;21.10;99.90;;;;;;5030073;28;20151;-57
2023/06/29 02:47:08;;;;;;;48.40;43.53;;;21.00;99.90;;;;;;5028706;28;20049;-57
2023/06/29 02:49:33;;;;;;;46.95;42.42;;;20.70;99.90;;;;;;5029714;28;20085;-57
2023/06/29 02:51:59;;;;;;;48.83;44.08;;;20.70;99.90;;;;;;5029577;28;20049;-57
2023/06/29 02:54:24;;;;;;;48.80;44.20;;;20.80;99.90;;;;;;5029658;28;20040;-57
2023/06/29 02:56:50;;;;;;;46.03;41.72;;;20.80;99.90;;;;;;5028440;28;20073;-57
2023/06/29 02:59:16;;;;;;;48.92;44.00;;;20.80;99.90;;;;;;5022326;28;20498;-57
2023/06/29 03:01:41;;;;;;;48.75;43.95;;;20.70;99.90;;;;;;5016234;28;20803;-57
2023/06/29 03:04:07;;;;;;;49.22;44.42;;;20.90;99.90;;;;;;5041673;28;20048;-57
2023/06/29 03:06:32;;;;;;;49.38;44.40;;;20.80;99.90;;;;;;5024392;28;20055;-57
2023/06/29 03:08:58;;;;;;;49.63;44.88;;;20.60;99.90;;;;;;5029716;28;20042;-57
2023/06/29 03:11:23;;;;;;;50.60;45.63;;;20.60;99.90;;;;;;5019515;28;20046;-57
2023/06/29 03:13:50;;;;;;;51.08;45.85;;;20.70;99.90;;;;;;5029194;28;20044;-57
2023/06/29 03:16:16;;;;;;;51.78;46.25;;;21.10;99.90;;;;;;5029442;28;20033;-57
2023/06/29 03:18:42;;;;;;;52.35;47.15;;;21.00;99.90;;;;;;5029962;28;20129;-57
2023/06/29 03:21:08;;;;;;;50.25;45.28;;;20.60;99.90;;;;;;5029233;28;20037;-57
2023/06/29 03:23:33;;;;;;;54.10;48.53;;;21.00;99.90;;;;;;5029638;28;20045;-57
2023/06/29 03:25:59;;;;;;;55.58;49.60;;;20.80;99.90;;;;;;5009822;28;20100;-56
2023/06/29 03:28:25;;;;;;;55.53;49.80;;;20.50;99.90;;;;;;5009958;28;20566;-57
2023/06/29 03:30:50;;;;;;;55.78;49.90;;;21.00;99.90;;;;;;5011498;28;20038;-57
2023/06/29 03:33:16;;;;;;;54.30;48.63;;;20.60;99.90;;;;;;5013425;28;20034;-57
2023/06/29 03:35:41;;;;;;;53.60;48.10;;;20.80;99.90;;;;;;5013391;28;20414;-57
2023/06/29 03:38:09;;;;;;;55.28;49.58;;;20.50;99.90;;;;;;5013703;28;20145;-57
2023/06/29 03:40:35;;;;;;;54.33;48.60;;;21.00;99.90;;;;;;5013613;28;20084;-57
2023/06/29 03:43:01;;;;;;;53.63;48.10;;;21.20;99.90;;;;;;5013054;28;20054;-57
2023/06/29 03:45:27;;;;;;;54.35;48.78;;;20.70;99.90;;;;;;5013430;28;20055;-57
2023/06/29 03:47:52;;;;;;;54.88;49.40;;;20.70;99.90;;;;;;5013131;28;20526;-57
2023/06/29 03:50:18;;;;;;;54.17;48.45;;;20.80;99.90;;;;;;5013351;28;20081;-57
2023/06/29 03:52:43;;;;;;;55.83;49.63;;;21.20;99.90;;;;;;5047889;28;20036;-58
2023/06/29 03:55:09;;;;;;;55.50;49.85;;;21.30;99.90;;;;;;5052892;28;20045;-57
2023/06/29 03:57:35;;;;;;;57.30;50.47;;;21.20;99.90;;;;;;5052980;28;20036;-57
2023/06/29 04:00:00;;;;;;;56.30;50.22;;;20.70;99.90;;;;;;5052845;28;20613;-57
2023/06/29 04:02:26;;;;;;;56.95;50.95;;;21.30;99.90;;;;;;5052652;28;20047;-57
2023/06/29 04:04:52;;;;;;;57.67;51.50;;;20.90;99.90;;;;;;5052745;28;20041;-57
2023/06/29 04:07:17;;;;;;;59.25;52.88;;;20.60;99.90;;;;;;5052709;28;20099;-57
2023/06/29 04:09:43;;;;;;;57.40;51.22;;;21.00;99.90;;;;;;5045417;28;20056;-57
2023/06/29 04:12:08;;;;;;;58.95;52.92;;;20.70;99.90;;;;;;5012860;28;20044;-57
2023/06/29 04:14:34;;;;;;;60.33;53.85;;;21.30;99.90;;;;;;5012965;28;20070;-57
2023/06/29 04:16:59;;;;;;;60.95;54.55;;;20.70;99.90;;;;;;5013087;28;20084;-57
2023/06/29 04:19:25;;;;;;;63.22;53.50;;;21.20;99.90;;;;;;5012922;28;20087;-57
2023/06/29 04:21:51;;;;;;;63.13;56.08;;;21.20;99.90;;;;;;5012915;28;20081;-57
2023/06/29 04:24:17;;;;;;;63.75;55.85;;;20.90;99.90;;;;;;5018331;28;20483;-57
2023/06/29 04:26:42;;;;;;;63.30;56.33;;;21.00;99.90;;;;;;5032793;28;20042;-57
2023/06/29 04:29:09;;;;;;;61.47;54.90;;;20.50;99.90;;;;;;5032721;28;20051;-57
2023/06/29 04:31:34;;;;;;;63.78;56.88;;;21.20;99.90;;;;;;5032521;28;20033;-57
2023/06/29 04:34:02;;;;;;;63.80;56.25;;;20.40;99.90;;;;;;5032226;28;20399;-57
2023/06/29 04:36:28;;;;;;;63.17;56.30;;;21.10;99.90;;;;;;5032320;28;20075;-57
2023/06/29 04:38:53;;;;;;;64.15;55.75;;;21.20;99.90;;;;;;5032209;28;20080;-58
2023/06/29 04:41:19;;;;;;;62.88;56.17;;;21.20;99.90;;;;;;5032191;28;20511;-57
2023/06/29 04:43:47;;;;;;;61.95;55.45;;;21.10;99.90;;;;;;5032191;28;20140;-58
2023/06/29 04:46:14;;;;;;;63.10;56.22;;;21.10;99.90;;;;;;5032110;28;20048;-58
2023/06/29 04:48:39;;;;;;;64.03;57.13;;;20.30;99.90;;;;;;5036482;28;20038;-57
2023/06/29 04:51:05;;;;;;;62.25;55.67;;;20.90;99.90;;;;;;5051783;28;20037;-58
2023/06/29 04:53:34;;;;;;;62.83;56.03;;;20.30;99.90;;;;;;5052114;28;20044;-58
2023/06/29 04:56:01;;;;;;;67.43;56.65;;;21.00;99.90;;;;;;5052052;28;20043;-57
2023/06/29 04:58:27;;;;;;;64.35;57.13;;;21.10;99.90;;;;;;5051908;28;20048;-57
2023/06/29 05:00:54;;;;;;;66.32;58.95;;;20.30;99.90;;;;;;5051828;28;20394;-58
2023/06/29 05:03:19;;;;;;;63.90;56.92;;;20.30;99.90;;;;;;5051597;28;20048;-58
2023/06/29 05:05:45;;;;;;;66.60;57.35;;;20.70;99.90;;;;;;5051789;28;20482;-58
2023/06/29 05:08:11;;;;;;;64.60;57.40;;;20.80;99.90;;;;;;5051702;28;20043;-58
2023/06/29 05:10:37;;;;;;;62.65;55.80;;;21.20;99.90;;;;;;5040199;28;20077;-58
2023/06/29 05:13:02;;;;;;;64.82;57.72;;;20.60;99.90;;;;;;5031398;28;20077;-58
2023/06/29 05:15:28;;;;;;;67.95;58.28;;;21.20;99.90;;;;;;5031550;28;20091;-58
2023/06/29 05:17:54;;;;;;;67.65;58.88;;;21.00;99.90;;;;;;5046004;28;20037;-58
2023/06/29 05:20:20;;;;;;;66.30;58.97;;;21.20;99.90;;;;;;5050148;28;20045;-57
2023/06/29 05:22:46;;;;;;;65.68;58.67;;;21.10;99.90;;;;;;5051195;28;20040;-57
2023/06/29 05:25:11;;;;;;;67.30;58.53;;;20.80;99.90;;;;;;5037576;28;20033;-57
2023/06/29 05:27:37;;;;;;;72.30;60.55;;;20.50;99.90;;;;;;5031322;28;20041;-57
2023/06/29 05:30:03;;;;;;;67.18;59.90;;;20.70;99.90;;;;;;5031235;28;20120;-57
2023/06/29 05:32:30;;;;;;;65.38;58.58;;;20.60;99.90;;;;;;5031129;28;20052;-57
2023/06/29 05:34:56;;;;;;;67.43;59.63;;;21.60;99.90;;;;;;5031145;28;20048;-57
2023/06/29 05:37:22;;;;;;;67.20;60.00;;;21.50;99.90;;;;;;5032416;28;20029;-58
2023/06/29 05:39:47;;;;;;;68.28;59.50;;;21.50;99.90;;;;;;5030842;28;20087;-57
2023/06/29 05:42:13;;;;;;;65.78;58.78;;;20.90;99.90;;;;;;5030781;28;20077;-57
2023/06/29 05:44:39;;;;;;;66.38;59.13;;;21.70;99.90;;;;;;5030496;28;20053;-58
2023/06/29 05:47:04;;;;;;;65.70;57.85;;;20.80;99.90;;;;;;5030553;28;20056;-57
2023/06/29 05:49:30;;;;;;;65.63;58.58;;;21.40;99.90;;;;;;5022877;28;20038;-57
2023/06/29 05:51:55;;;;;;;65.15;58.08;;;20.70;99.90;;;;;;5010539;28;20038;-57
2023/06/29 05:54:21;;;;;;;62.38;55.47;;;21.20;99.90;;;;;;5010240;28;20038;-57
2023/06/29 05:56:46;;;;;;;68.50;56.47;;;21.40;99.90;;;;;;5010825;28;20070;-57
2023/06/29 05:59:12;;;;;;;63.78;55.83;;;21.20;99.90;;;;;;5010901;28;20049;-57
2023/06/29 06:01:38;;;;;;;66.13;57.00;;;21.90;99.90;;;;;;5010654;28;20049;-57
2023/06/29 06:04:04;;;;;;;64.60;57.13;;;21.70;99.90;;;;;;5010652;28;20048;-57
2023/06/29 06:06:32;;;;;;;63.53;55.35;;;21.30;99.90;;;;;;5010568;28;20034;-57
2023/06/29 06:08:58;;;;;;;63.65;56.75;;;21.00;99.90;;;;;;5043398;28;20063;-58
2023/06/29 06:11:24;;;;;;;61.47;54.60;;;21.90;99.90;;;;;;5032445;28;20494;-57
2023/06/29 06:13:50;;;;;;;63.50;56.55;;;21.60;99.90;;;;;;5029855;28;20077;-57
2023/06/29 06:16:16;;;;;;;65.40;54.90;;;22.10;99.90;;;;;;5030306;28;20064;-57
2023/06/29 06:18:41;;;;;;;60.53;54.08;;;21.90;99.90;;;;;;5028692;28;20049;-57
2023/06/29 06:21:07;;;;;;;61.33;54.67;;;22.00;99.90;;;;;;5043171;28;20045;-61
2023/06/29 06:23:32;;;;;;;61.22;53.80;;;22.00;99.90;;;;;;5030026;28;20129;-60
2023/06/29 06:25:58;;;;;;;64.28;54.67;;;21.90;99.90;;;;;;5029800;28;20041;-60
2023/06/29 06:28:27;;;;;;;61.05;53.45;;;22.00;99.90;;;;;;5030105;28;20414;-58
2023/06/29 06:30:53;;;;;;;69.13;52.63;;;21.50;99.90;;;;;;5030139;28;20045;-58
2023/06/29 06:33:18;;;;;;;65.32;53.90;;;21.20;99.90;;;;;;5029965;28;20037;-59
2023/06/29 06:35:44;;;;;;;60.55;53.20;;;21.30;99.90;;;;;;5030266;28;20385;-59
2023/06/29 06:38:10;;;;;;;62.10;53.53;;;21.30;99.90;;;;;;5044676;28;20553;-59
2023/06/29 06:40:35;;;;;;;62.97;54.40;;;21.00;99.90;;;;;;5012056;28;20068;-59
2023/06/29 06:43:01;;;;;;;60.55;53.10;;;21.70;99.90;;;;;;5010528;28;20049;-59
2023/06/29 06:45:27;;;;;;;65.97;54.80;;;21.50;99.90;;;;;;5028066;28;20057;-59
2023/06/29 06:47:53;;;;;;;66.22;53.67;;;21.10;99.90;;;;;;5029830;28;20046;-59
2023/06/29 06:50:20;;;;;;;64.68;54.50;;;21.30;99.90;;;;;;5029876;28;20038;-59
2023/06/29 06:52:46;;;;;;;65.00;54.60;;;20.90;99.90;;;;;;5029606;28;20415;-59
2023/06/29 06:55:12;;;;;;;67.28;55.78;;;20.80;99.90;;;;;;5029829;28;20056;-59
2023/06/29 06:57:38;;;;;;;67.50;56.92;;;22.00;99.90;;;;;;5029776;28;20563;-60
2023/06/29 07:00:05;;;;;;;68.90;55.70;;;21.70;99.90;;;;;;5036283;28;20098;-59
2023/06/29 07:02:31;;;;;;;70.97;57.72;;;21.90;99.90;;;;;;5035231;28;20252;-61
2023/06/29 07:04:56;;;;;;;68.78;57.22;;;22.10;99.90;;;;;;5044952;28;20049;-60
2023/06/29 07:07:22;;;;;;;73.38;58.92;;;20.90;99.90;;;;;;5033575;28;20046;-60
2023/06/29 07:09:47;;;;;;;73.03;58.15;;;22.00;99.90;;;;;;5029366;28;20423;-59
2023/06/29 07:12:13;;;;;;;74.38;59.42;;;21.00;99.90;;;;;;5028802;28;20042;-60
2023/06/29 07:14:39;;;;;;;67.53;55.47;;;22.00;99.90;;;;;;5013666;28;20042;-60
2023/06/29 07:17:05;;;;;;;64.82;55.15;;;22.10;99.90;;;;;;5013618;28;20042;-60
2023/06/29 07:19:31;;;;;;;75.75;58.53;;;21.40;99.90;;;;;;5013803;28;20037;-60
2023/06/29 07:21:56;;;;;;;67.47;57.08;;;21.50;99.90;;;;;;5013712;28;20048;-60
2023/06/29 07:24:22;;;;;;;75.60;58.40;;;20.90;99.90;;;;;;5013066;28;20045;-59
2023/06/29 07:26:47;;;;;;;72.07;58.60;;;20.90;99.90;;;;;;5013545;28;20042;-59
2023/06/29 07:29:13;;;;;;;74.47;58.97;;;22.00;99.90;;;;;;5013614;28;20049;-60
2023/06/29 07:31:39;;;;;;;65.72;57.83;;;20.90;99.90;;;;;;5013357;28;20392;-59
2023/06/29 07:34:05;;;;;;;73.32;60.80;;;20.90;99.90;;;;;;5027947;28;20542;-59
2023/06/29 07:36:30;;;;;;;80.28;61.83;;;22.20;99.90;;;;;;5033175;28;20152;-59
2023/06/29 07:38:56;;;;;;;80.90;60.85;;;22.00;99.90;;;;;;5033207;28;20041;-60
2023/06/29 07:41:22;;;;;;;84.25;63.15;;;21.20;99.90;;;;;;5020549;28;20065;-60
2023/06/29 07:43:52;;;;;;;88.05;64.03;;;21.60;99.90;;;;;;5013927;28;20059;-60
2023/06/29 07:46:17;;;;;;;84.70;63.80;;;22.00;99.90;;;;;;5017945;28;20159;-60
2023/06/29 07:48:43;;;;;;;82.20;65.43;;;21.70;99.90;;;;;;5033250;28;20049;-60
2023/06/29 07:51:09;;;;;;;84.10;64.10;;;21.00;99.90;;;;;;5032970;28;20084;-60
2023/06/29 07:53:35;;;;;;;83.30;64.10;;;20.80;99.90;;;;;;5032715;28;20037;-60
2023/06/29 07:56:01;;;;;;;83.60;63.80;;;21.80;99.90;;;;;;5032933;28;20072;-60
2023/06/29 07:58:27;;;;;;;87.35;65.22;;;22.00;99.90;;;;;;5030090;28;20033;-60
2023/06/29 08:00:54;;;;;;;84.20;62.40;;;22.00;99.90;;;;;;5032737;28;20041;-60
2023/06/29 08:03:19;;;;;;;84.63;61.08;;;21.50;99.90;;;;;;5032184;28;20037;-60
2023/06/29 08:05:45;;;;;;;76.57;57.38;;;20.80;99.90;;;;;;5032492;28;20423;-60
2023/06/29 08:08:12;;;;;;;77.65;58.17;;;21.90;99.90;;;;;;5032501;28;20083;-60
2023/06/29 08:10:38;;;;;;;83.18;57.00;;;21.70;99.90;;;;;;5032197;28;20041;-60
2023/06/29 08:13:03;;;;;;;75.13;57.92;;;21.60;99.90;;;;;;5032337;28;20086;-60
2023/06/29 08:15:29;;;;;;;72.22;56.00;;;20.90;99.90;;;;;;5018877;28;20160;-60
2023/06/29 08:17:54;;;;;;;67.10;55.80;;;21.30;99.90;;;;;;5022636;28;20037;-60
2023/06/29 08:20:20;;;;;;;75.95;59.25;;;21.60;99.90;;;;;;5032313;28;20033;-60
2023/06/29 08:22:48;;;;;;;75.95;58.75;;;21.70;99.90;;;;;;5032370;28;20514;-60
2023/06/29 08:25:14;;;;;;;75.60;58.85;;;21.10;99.90;;;;;;5028660;28;20423;-60
2023/06/29 08:27:40;;;;;;;77.18;56.42;;;20.50;99.90;;;;;;5032005;28;20041;-61
2023/06/29 08:30:07;;;;;;;67.80;54.13;;;20.50;99.90;;;;;;5064110;28;20060;-60
2023/06/29 08:32:33;;;;;;;72.70;53.05;;;21.70;99.90;;;;;;5032173;28;20491;-60
2023/06/29 08:34:58;;;;;;;63.55;52.92;;;20.50;99.90;;;;;;5031522;28;20052;-60
2023/06/29 08:37:24;;;;;;;63.50;52.22;;;21.50;99.90;;;;;;5031974;28;20043;-60
2023/06/29 08:39:49;;;;;;;58.88;51.22;;;21.80;99.90;;;;;;5032042;28;20041;-60
2023/06/29 08:42:15;;;;;;;65.90;52.42;;;20.60;99.90;;;;;;5025190;28;20518;-60
2023/06/29 08:44:40;;;;;;;59.47;52.08;;;21.90;99.90;;;;;;5031864;28;20491;-60
2023/06/29 08:47:07;;;;;;;68.53;55.33;;;21.80;99.90;;;;;;5031349;28;20033;-60
2023/06/29 08:49:41;;;;;;;62.95;55.45;;;20.60;99.90;;;;;;5031719;28;20091;-60
2023/06/29 08:52:11;;;;;;;66.57;55.92;;;20.50;99.90;;;;;;5031805;28;20033;-61
2023/06/29 08:54:38;;;;;;;64.15;56.67;;;21.60;99.90;;;;;;5031827;28;20052;-61
2023/06/29 08:57:05;;;;;;;67.80;57.00;;;21.90;99.90;;;;;;5050560;28;20041;-60
2023/06/29 08:59:32;;;;;;;64.63;57.38;;;22.00;99.90;;;;;;5046595;28;20116;-60
2023/06/29 09:01:58;;;;;;;65.32;57.78;;;22.10;99.90;;;;;;5031908;28;20092;-61
2023/06/29 09:04:24;;;;;;;65.15;58.08;;;22.10;99.90;;;;;;5031634;28;20072;-61
2023/06/29 09:06:53;;;;;;;65.88;58.72;;;22.10;99.90;;;;;;5031390;28;20045;-61
2023/06/29 09:09:19;;;;;;;63.15;56.53;;;22.00;99.90;;;;;;5030519;28;20121;-61
2023/06/29 09:11:45;;;;;;;69.32;59.42;;;22.20;99.90;;;;;;5015434;28;20038;-60
2023/06/29 09:14:11;;;;;;;66.97;59.38;;;20.80;99.90;;;;;;5045169;28;20045;-61
2023/06/29 09:16:52;;;;;;;67.47;60.08;;;21.40;99.90;;;;;;5031460;28;20034;-61
2023/06/29 09:19:18;;;;;;;67.93;60.75;;;22.10;99.90;;;;;;5031352;28;20034;-60
2023/06/29 09:21:47;;;;;;;71.72;61.75;;;22.30;99.90;;;;;;5029193;28;20045;-62
2023/06/29 09:24:14;;;;;;;71.75;61.67;;;22.30;99.90;;;;;;5019468;28;20065;-61
2023/06/29 09:26:40;;;;;;;71.85;63.95;;;21.00;99.90;;;;;;5029381;28;20072;-61
2023/06/29 09:29:05;;;;;;;68.88;61.35;;;21.30;99.90;;;;;;5045743;28;20077;-60
2023/06/29 09:31:35;;;;;;;72.53;62.10;;;22.70;99.90;;;;;;5031408;28;20101;-60
2023/06/29 09:34:18;;;;;;;69.55;61.60;;;22.40;99.90;;;;;;5058751;28;20052;-60
2023/06/29 09:36:45;;;;;;;69.03;61.63;;;21.80;99.90;;;;;;5015660;28;20116;-61
2023/06/29 09:39:12;;;;;;;69.88;61.75;;;22.10;99.90;;;;;;5021743;28;20036;-60
2023/06/29 09:41:50;;;;;;;70.70;62.95;;;22.90;99.90;;;;;;5062287;28;20507;-61
2023/06/29 09:44:20;;;;;;;73.20;60.70;;;22.90;99.90;;;;;;5060265;28;20052;-60
2023/06/29 09:46:50;;;;;;;68.85;61.42;;;21.50;99.90;;;;;;5025083;28;20124;-60
2023/06/29 09:49:18;;;;;;;63.70;56.97;;;22.80;99.90;;;;;;5061957;28;20041;-60
2023/06/29 09:51:44;;;;;;;66.88;59.78;;;22.30;99.90;;;;;;5062192;28;20045;-60
2023/06/29 09:54:14;;;;;;;67.20;59.90;;;22.10;99.90;;;;;;5025739;28;20046;-60
2023/06/29 09:56:44;;;;;;;69.72;58.60;;;23.00;99.90;;;;;;5018426;28;20518;-60
2023/06/29 09:59:13;;;;;;;68.75;61.25;;;23.00;99.90;;;;;;5045750;28;20048;-60
2023/06/29 10:01:40;;;;;;;67.30;59.58;;;22.80;99.90;;;;;;5030441;28;20080;-60
2023/06/29 10:04:06;;;;;;;70.55;61.17;;;21.70;99.90;;;;;;5030399;28;20088;-60
2023/06/29 10:06:46;;;;;;;68.55;61.15;;;22.40;99.90;;;;;;5045882;28;20061;-60
2023/06/29 10:09:20;;;;;;;67.35;59.97;;;22.70;99.90;;;;;;5030495;28;20076;-60
2023/06/29 10:11:53;;;;;;;67.38;60.05;;;22.50;99.90;;;;;;5017725;28;20037;-59
2023/06/29 10:14:20;;;;;;;67.05;58.53;;;22.60;99.90;;;;;;5030348;28;20056;-60
2023/06/29 10:16:50;;;;;;;64.50;56.92;;;23.40;99.90;;;;;;5042244;28;20418;-60
2023/06/29 10:19:18;;;;;;;70.30;58.70;;;23.20;99.90;;;;;;5023167;28;20042;-60
2023/06/29 10:21:45;;;;;;;67.20;58.33;;;22.90;99.90;;;;;;5017868;28;20064;-60
2023/06/29 10:24:15;;;;;;;68.82;58.78;;;21.80;99.90;;;;;;5029300;28;20038;-60
2023/06/29 10:26:41;;;;;;;63.03;56.00;;;23.20;99.90;;;;;;5043273;28;20458;-59
2023/06/29 10:29:07;;;;;;;65.95;56.85;;;23.00;99.90;;;;;;5030028;28;20098;-60
2023/06/29 10:31:33;;;;;;;67.43;57.60;;;22.60;99.90;;;;;;5029716;28;20053;-60
2023/06/29 10:33:59;;;;;;;73.30;58.85;;;23.10;99.90;;;;;;5030316;28;20034;-60
2023/06/29 10:36:25;;;;;;;62.38;55.22;;;21.80;99.90;;;;;;5020730;28;20739;-60
2023/06/29 10:38:51;;;;;;;74.72;59.90;;;22.80;99.90;;;;;;5012691;28;20034;-60
2023/06/29 10:41:27;;;;;;;70.32;57.80;;;23.30;99.90;;;;;;5014133;28;20047;-60
2023/06/29 10:44:05;;;;;;;;;;;22.60;99.90;;;;;;5029956;28;20526;-59
2023/06/29 10:46:47;;;;;;;72.05;58.63;;;22.00;99.90;;;;;;5029915;28;19924;-59
2023/06/29 10:49:25;;;;;;;69.25;58.70;;;22.10;99.90;;;;;;5029908;28;20044;-59
2023/06/29 10:52:00;;;;;;;69.78;58.92;;;23.40;99.90;;;;;;5025697;28;20082;-60
2023/06/29 10:54:26;;;;;;;66.88;56.50;;;23.10;99.90;;;;;;5028309;28;20077;-60
2023/06/29 10:57:07;;;;;;;68.57;58.15;;;22.90;99.90;;;;;;5028498;28;20064;-60
2023/06/29 10:59:34;;;;;;;72.32;58.53;;;23.50;99.90;;;;;;5029828;28;20514;-59
2023/06/29 11:02:01;;;;;;;63.95;54.75;;;23.10;99.90;;;;;;5045076;28;20059;-62
2023/06/29 11:04:28;;;;;;;69.72;59.65;;;23.30;99.90;;;;;;5029317;28;20099;-60
2023/06/29 11:06:53;;;;;;;65.00;57.90;;;23.10;99.90;;;;;;5037578;28;20030;-60
2023/06/29 11:09:19;;;;;;;77.65;56.97;;;24.00;99.90;;;;;;5022597;28;20496;-59
2023/06/29 11:11:49;;;;;;;69.82;57.60;;;23.00;99.90;;;;;;5026882;28;20044;-59
2023/06/29 11:14:15;;;;;;;69.93;58.17;;;22.90;99.90;;;;;;5028495;28;20050;-59
2023/06/29 11:16:41;;;;;;;66.30;57.20;;;23.00;99.90;;;;;;5029310;28;20038;-60
2023/06/29 11:19:07;;;;;;;65.63;57.30;;;24.20;99.90;;;;;;5029598;28;20041;-59
2023/06/29 11:21:33;;;;;;;65.80;55.55;;;24.20;99.90;;;;;;5027896;28;20041;-60
2023/06/29 11:23:58;;;;;;;67.78;57.67;;;24.40;99.90;;;;;;5041415;28;20247;-59
2023/06/29 11:26:26;;;;;;;70.40;58.63;;;23.80;99.90;;;;;;5010305;28;20065;-59
2023/06/29 11:28:53;;;;;;;73.68;57.35;;;23.00;99.90;;;;;;5029448;28;20050;-59
2023/06/29 11:31:22;;;;;;;71.35;58.85;;;24.20;99.90;;;;;;5010841;28;20392;-59
2023/06/29 11:33:52;;;;;;;67.68;57.92;;;23.50;99.90;;;;;;5029359;28;20124;-60
2023/06/29 11:36:36;;;;;;;66.43;59.25;;;23.70;99.90;;;;;;5029393;28;20041;-59
2023/06/29 11:39:10;;;;;;;65.57;57.35;;;24.30;99.90;;;;;;5031687;28;20460;-59
2023/06/29 11:41:40;;;;;;;69.90;57.80;;;23.70;99.90;;;;;;5048014;28;20090;-59
2023/06/29 11:44:06;;;;;;;72.75;59.72;;;23.30;99.90;;;;;;5029187;28;20076;-59
2023/06/29 11:46:33;;;;;;;72.20;57.90;;;23.40;99.90;;;;;;5029148;28;20088;-59
2023/06/29 11:49:00;;;;;;;68.30;58.03;;;24.20;99.90;;;;;;5060776;28;20037;-59
2023/06/29 11:51:29;;;;;;;71.25;59.40;;;23.50;99.90;;;;;;5029665;28;20048;-59
2023/06/29 11:53:56;;;;;;;74.97;58.65;;;23.60;99.90;;;;;;5032905;28;20057;-59
2023/06/29 11:56:35;;;;;;;71.88;58.58;;;24.10;99.90;;;;;;5064966;28;20102;-59
2023/06/29 11:59:10;;;;;;;75.40;57.33;;;23.60;99.90;;;;;;5012194;28;20136;-59
2023/06/29 12:01:37;;;;;;;72.22;59.88;;;24.00;99.90;;;;;;5016828;28;20045;-59
2023/06/29 12:04:09;;;;;;;76.53;61.75;;;24.30;99.90;;;;;;5013043;28;20043;-59
2023/06/29 12:06:36;;;;;;;74.28;59.75;;;23.90;99.90;;;;;;5026161;28;20605;-59
2023/06/29 12:09:11;;;;;;;73.93;59.67;;;24.70;99.90;;;;;;5032615;28;20553;-59
2023/06/29 12:11:37;;;;;;;73.85;60.63;;;24.50;99.90;;;;;;5013280;28;20045;-59
2023/06/29 12:14:02;;;;;;;70.50;60.35;;;23.60;99.90;;;;;;5019356;28;20048;-59
2023/06/29 12:16:28;;;;;;;75.82;63.10;;;24.30;99.90;;;;;;5032258;28;20037;-59
2023/06/29 12:18:53;;;;;;;81.88;62.97;;;23.40;99.90;;;;;;5032126;28;20116;-59
2023/06/29 12:21:20;;;;;;;85.03;64.78;;;23.60;99.90;;;;;;5032437;28;20110;-60
2023/06/29 12:23:46;;;;;;;88.10;67.95;;;23.50;99.90;;;;;;5029755;28;20041;-59
2023/06/29 12:26:12;;;;;;;90.97;69.15;;;23.50;99.90;;;;;;5030781;28;20052;-58